Time;durP1;ratioP1;P1;durP2;ratioP2;P2;SDS_P1;SDS_P2;PMS_P1;PMS_P2;Temp;Humidity;BMP_temperature;BMP_pressure;BME280_temperature;BME280_humidity;BME280_pressure;Samples;Min_cycle;Max_cycle;Signal;HPM_P1;HPM_P2
2022/05/02 00:01:34;;;;;;;8.15;4.68;;;;;;;11.39;68.90;100372.59;5029484;28;20037;-29
2022/05/02 00:04:00;;;;;;;7.30;4.80;;;;;;;11.13;70.20;100365.56;5029711;28;20044;-30
2022/05/02 00:06:25;;;;;;;12.32;5.13;;;;;;;11.28;69.52;100366.09;5029827;28;20040;-29
2022/05/02 00:08:51;;;;;;;8.57;5.05;;;;;;;11.38;69.04;100352.25;5029306;28;20034;-30
2022/05/02 00:11:16;;;;;;;9.48;5.00;;;;;;;11.53;68.36;100346.59;5029713;28;20496;-28
2022/05/02 00:13:42;;;;;;;8.48;5.43;;;;;;;11.73;67.92;100354.44;5029577;28;20025;-29
2022/05/02 00:16:08;;;;;;;9.35;5.15;;;;;;;11.69;67.56;100330.03;5029471;28;20029;-28
2022/05/02 00:18:33;;;;;;;7.72;5.00;;;;;;;11.72;68.00;100344.78;5029555;28;20464;-28
2022/05/02 00:20:59;;;;;;;9.95;5.47;;;;;;;11.87;67.03;100347.94;5029471;28;20037;-29
2022/05/02 00:23:24;;;;;;;12.45;4.80;;;;;;;11.63;68.12;100334.38;5029333;28;20025;-31
2022/05/02 00:25:50;;;;;;;10.10;5.25;;;;;;;11.63;68.42;100350.41;5029519;28;20029;-30
2022/05/02 00:28:15;;;;;;;7.80;5.10;;;;;;;11.50;68.63;100352.38;5029317;28;20049;-28
2022/05/02 00:30:42;;;;;;;10.20;5.20;;;;;;;11.55;68.24;100350.69;5028687;28;20044;-31
2022/05/02 00:33:07;;;;;;;7.63;5.60;;;;;;;11.58;67.76;100339.53;5028128;28;20030;-29
2022/05/02 00:35:33;;;;;;;8.82;5.65;;;;;;;11.41;69.36;100333.13;5029144;28;20163;-29
2022/05/02 00:37:58;;;;;;;8.68;5.47;;;;;;;11.45;69.19;100329.00;5029061;28;20064;-31
2022/05/02 00:40:24;;;;;;;7.32;5.82;;;;;;;11.24;69.95;100311.50;5029078;28;20025;-30
2022/05/02 00:42:50;;;;;;;8.77;5.57;;;;;;;11.24;69.81;100339.00;5028784;28;20038;-30
2022/05/02 00:45:17;;;;;;;10.80;4.95;;;;;;;11.12;70.51;100327.38;5028829;28;20417;-28
2022/05/02 00:47:54;;;;;;;8.90;5.20;;;;;;;11.05;70.63;100307.91;5029249;28;20422;-30
2022/05/02 00:50:41;;;;;;;8.27;5.13;;;;;;;11.06;71.43;100320.25;5027503;28;20446;-31
2022/05/02 00:53:09;;;;;;;9.40;5.50;;;;;;;11.22;69.86;100303.69;5028738;28;20164;-29
2022/05/02 00:55:35;;;;;;;;;;;;;;;11.22;69.85;100314.38;5029369;28;20102;-28
2022/05/02 00:58:02;;;;;;;9.63;5.07;;;;;;;11.19;69.96;100314.81;5029052;28;20385;-30
2022/05/02 01:00:30;;;;;;;9.67;6.23;;;;;;;11.09;70.08;100303.78;5027218;28;20082;-31
2022/05/02 01:02:55;;;;;;;12.20;6.45;;;;;;;11.18;70.48;100286.47;5027188;28;20124;-31
2022/05/02 01:05:21;;;;;;;7.32;5.15;;;;;;;11.19;70.07;100309.47;5028668;28;20036;-29
2022/05/02 01:07:47;;;;;;;9.65;5.57;;;;;;;11.21;70.25;100312.72;5028407;28;20083;-28
2022/05/02 01:10:17;;;;;;;9.00;5.65;;;;;;;11.14;70.09;100300.50;5028040;28;20029;-29
2022/05/02 01:12:46;;;;;;;8.82;5.88;;;;;;;10.81;71.56;100281.00;5028260;28;20034;-30
2022/05/02 01:15:13;;;;;;;9.10;6.10;;;;;;;10.91;71.28;100296.53;5027094;28;20057;-32
2022/05/02 01:17:38;;;;;;;8.15;5.88;;;;;;;10.82;71.62;100303.16;5028385;28;20025;-30
2022/05/02 01:20:08;;;;;;;9.27;5.68;;;;;;;10.94;71.33;100303.28;5028471;28;20094;-29
2022/05/02 01:22:34;;;;;;;9.07;5.55;;;;;;;10.81;72.21;100296.19;5028334;28;20747;-33
2022/05/02 01:24:59;;;;;;;8.98;5.90;;;;;;;10.61;72.60;100293.63;5028328;28;20087;-31
2022/05/02 01:27:25;;;;;;;9.07;5.88;;;;;;;10.72;72.23;100295.59;5028373;28;20026;-30
2022/05/02 01:29:50;;;;;;;9.10;5.65;;;;;;;10.58;72.59;100289.56;5026916;28;20030;-30
2022/05/02 01:32:16;;;;;;;8.27;5.50;;;;;;;10.78;72.19;100297.41;5026831;28;20033;-30
2022/05/02 01:34:43;;;;;;;10.32;6.03;;;;;;;10.57;72.39;100269.22;5027829;28;20026;-31
2022/05/02 01:37:10;;;;;;;8.77;5.63;;;;;;;10.81;72.53;100290.84;5028048;28;20041;-30
2022/05/02 01:39:36;;;;;;;12.37;6.53;;;;;;;11.05;71.46;100271.41;5028603;28;20087;-30
2022/05/02 01:42:07;;;;;;;8.80;6.20;;;;;;;11.01;70.73;100270.19;5028089;28;20069;-30
2022/05/02 01:44:34;;;;;;;13.13;6.68;;;;;;;11.00;70.77;100281.06;5028004;28;20026;-30
2022/05/02 01:46:59;;;;;;;9.35;6.95;;;;;;;10.95;70.65;100270.22;5026564;28;20435;-28
2022/05/02 01:49:24;;;;;;;9.45;6.50;;;;;;;10.94;70.30;100276.59;5027779;28;20560;-29
2022/05/02 01:51:51;;;;;;;10.32;6.05;;;;;;;10.73;70.70;100257.25;5027559;28;20025;-29
2022/05/02 01:54:17;;;;;;;9.73;6.40;;;;;;;10.92;69.29;100265.34;5027919;28;20029;-29
2022/05/02 01:56:44;;;;;;;10.68;5.95;;;;;;;10.99;68.10;100239.41;5026233;28;20021;-29
2022/05/02 01:59:10;;;;;;;10.80;6.40;;;;;;;10.91;69.03;100237.00;5026722;28;20046;-29
2022/05/02 02:01:35;;;;;;;12.38;6.45;;;;;;;10.92;69.09;100254.66;5027201;28;20035;-31
2022/05/02 02:05:48;;;;;;;9.23;5.75;;;;;;;10.61;70.08;100253.63;5026205;28;20053;-30
2022/05/02 02:06:49;;;;;;;8.93;5.70;;;;;;;10.27;72.50;100256.41;5027467;28;20029;-30
2022/05/02 02:09:14;;;;;;;11.82;6.18;;;;;;;9.69;74.30;100228.97;5027787;28;20029;-28
2022/05/02 02:11:40;;;;;;;9.38;6.10;;;;;;;9.76;73.26;100222.59;5027434;28;20470;-30
2022/05/02 02:14:05;;;;;;;11.73;6.70;;;;;;;9.90;72.93;100242.00;5027486;28;20021;-28
2022/05/02 02:16:31;;;;;;;8.43;6.43;;;;;;;9.90;72.78;100230.56;5025988;28;20048;-34
2022/05/02 02:18:56;;;;;;;9.60;6.80;;;;;;;9.91;73.59;100226.84;5027226;28;20215;-29
2022/05/02 02:21:22;;;;;;;9.88;6.35;;;;;;;9.75;72.74;100225.47;5027562;28;20029;-29
2022/05/02 02:23:47;;;;;;;8.95;5.95;;;;;;;9.78;72.65;100227.72;5031882;28;20108;-32
2022/05/02 02:26:12;;;;;;;10.68;6.60;;;;;;;9.53;73.46;100198.28;5031411;28;20187;-30
2022/05/02 02:28:39;;;;;;;9.57;6.75;;;;;;;9.49;74.41;100203.22;5031236;28;20022;-30
2022/05/02 02:31:04;;;;;;;11.43;7.00;;;;;;;9.54;75.05;100216.72;5029977;28;20085;-29
2022/05/02 02:33:30;;;;;;;10.80;6.65;;;;;;;9.77;74.33;100207.44;5031216;28;20512;-32
2022/05/02 02:35:55;;;;;;;10.48;6.85;;;;;;;9.78;74.44;100201.09;5031214;28;20048;-29
2022/05/02 02:38:21;;;;;;;12.63;7.00;;;;;;;9.70;75.02;100209.31;5031332;28;20037;-30
2022/05/02 02:40:46;;;;;;;14.05;7.25;;;;;;;9.82;74.22;100207.63;5029675;28;20087;-28
2022/05/02 02:43:12;;;;;;;10.82;7.07;;;;;;;10.26;72.39;100192.69;5030225;28;20100;-30
2022/05/02 02:45:38;;;;;;;11.23;6.82;;;;;;;10.06;73.55;100214.91;5031190;28;20035;-29
2022/05/02 02:48:04;;;;;;;10.30;6.80;;;;;;;9.78;74.36;100198.41;5030922;28;20112;-30
2022/05/02 02:50:29;;;;;;;10.52;6.97;;;;;;;10.03;73.90;100219.84;5029854;28;20110;-30
2022/05/02 02:52:55;;;;;;;10.52;8.23;;;;;;;9.95;73.84;100220.91;5031149;28;20409;-28
2022/05/02 02:55:21;;;;;;;12.27;7.18;;;;;;;9.83;73.58;100217.25;5031026;28;20029;-31
2022/05/02 02:57:46;;;;;;;9.45;6.35;;;;;;;9.51;74.70;100224.31;5031224;28;20075;-31
2022/05/02 03:00:12;;;;;;;10.75;7.25;;;;;;;9.47;75.26;100231.06;5030893;28;20089;-29
2022/05/02 03:02:40;;;;;;;10.88;7.10;;;;;;;9.53;75.14;100239.03;5030332;28;20497;-30
2022/05/02 03:07:50;;;;;;;9.60;6.15;;;;;;;8.94;75.66;100247.88;5031031;28;20692;-29
2022/05/02 03:10:15;;;;;;;11.70;6.55;;;;;;;8.73;76.68;100241.72;5030413;28;20549;-28
2022/05/02 03:12:41;;;;;;;10.63;6.63;;;;;;;8.65;77.27;100244.56;5030582;28;20034;-30
2022/05/02 03:15:07;;;;;;;11.38;6.43;;;;;;;8.57;77.23;100247.41;5030479;28;20486;-30
2022/05/02 03:17:32;;;;;;;9.18;6.60;;;;;;;8.39;77.49;100232.81;5029528;28;20026;-29
2022/05/02 03:19:58;;;;;;;10.48;7.57;;;;;;;8.45;79.18;100249.81;5030885;28;20391;-29
2022/05/02 03:22:23;;;;;;;14.23;7.65;;;;;;;8.30;80.55;100260.59;5030876;28;20033;-28
2022/05/02 03:24:49;;;;;;;11.35;7.00;;;;;;;8.46;79.76;100248.81;5030252;28;20037;-32
2022/05/02 03:27:14;;;;;;;11.70;7.70;;;;;;;8.53;79.63;100259.47;5030276;28;20028;-29
2022/05/02 03:29:40;;;;;;;12.45;7.82;;;;;;;8.38;80.13;100239.16;5030549;28;20029;-31
2022/05/02 03:32:05;;;;;;;9.80;7.20;;;;;;;8.36;80.80;100265.09;5030071;28;20040;-28
2022/05/02 03:34:31;;;;;;;10.50;6.78;;;;;;;8.65;79.92;100260.50;5030679;28;20057;-29
2022/05/02 03:36:56;;;;;;;13.13;7.72;;;;;;;8.78;78.68;100249.88;5027856;28;20041;-28
2022/05/02 03:39:22;;;;;;;10.50;6.78;;;;;;;8.98;78.02;100257.91;5029154;28;20163;-32
2022/05/02 03:41:49;;;;;;;10.80;7.07;;;;;;;8.97;76.75;100237.66;5029632;28;20050;-28
2022/05/02 03:44:15;;;;;;;10.60;7.80;;;;;;;9.34;76.00;100242.56;5029798;28;20031;-31
2022/05/02 03:46:40;;;;;;;11.27;7.90;;;;;;;9.19;77.13;100251.59;5028647;28;20037;-30
2022/05/02 03:49:06;;;;;;;11.55;7.47;;;;;;;9.33;76.96;100240.91;5030158;28;20056;-29
2022/05/02 03:51:31;;;;;;;11.98;8.00;;;;;;;9.60;75.78;100255.84;5030200;28;20033;-29
2022/05/02 03:53:57;;;;;;;12.95;7.25;;;;;;;9.57;75.50;100237.59;5028226;28;20141;-28
2022/05/02 03:56:22;;;;;;;10.70;6.32;;;;;;;9.49;75.84;100239.66;5029889;28;20036;-31
2022/05/02 03:58:48;;;;;;;12.45;7.97;;;;;;;9.74;75.76;100253.94;5029313;28;20033;-32
2022/05/02 04:01:13;;;;;;;13.15;8.93;;;;;;;9.94;74.12;100253.88;5029762;28;20036;-31
2022/05/02 04:03:38;;;;;;;12.35;8.88;;;;;;;9.67;75.52;100241.69;5029905;28;20762;-32
2022/05/02 04:06:04;;;;;;;15.82;9.07;;;;;;;9.84;74.68;100249.00;5030066;28;20489;-28
2022/05/02 04:08:30;;;;;;;13.43;8.27;;;;;;;10.24;73.13;100245.38;5029758;28;20433;-31
2022/05/02 04:10:55;;;;;;;12.60;8.23;;;;;;;10.11;73.67;100226.78;5029274;28;20068;-29
2022/05/02 04:13:20;;;;;;;14.05;8.77;;;;;;;10.36;72.97;100235.72;5029639;28;20022;-28
2022/05/02 04:15:46;;;;;;;11.70;9.18;;;;;;;10.18;74.44;100238.25;5028260;28;20041;-29
2022/05/02 04:18:11;;;;;;;13.18;8.93;;;;;;;10.58;73.10;100246.03;5029939;28;20473;-28
2022/05/02 04:20:37;;;;;;;14.05;8.55;;;;;;;10.53;72.89;100235.22;5029367;28;20597;-32
2022/05/02 04:23:03;;;;;;;12.10;7.65;;;;;;;10.47;74.21;100220.88;5029338;28;20029;-29
2022/05/02 04:25:28;;;;;;;11.15;8.75;;;;;;;10.58;74.02;100222.03;5028194;28;20489;-28
2022/05/02 04:27:54;;;;;;;12.35;7.38;;;;;;;10.45;74.47;100230.94;5029220;28;20025;-31
2022/05/02 04:30:19;;;;;;;11.60;8.02;;;;;;;10.65;73.97;100217.50;5029250;28;20756;-29
2022/05/02 04:32:44;;;;;;;12.23;8.75;;;;;;;10.89;72.28;100209.72;5028885;28;20551;-30
2022/05/02 04:35:10;;;;;;;11.68;8.55;;;;;;;11.11;71.22;100218.16;5029234;28;20025;-29
2022/05/02 04:37:37;;;;;;;12.85;8.43;;;;;;;11.13;71.45;100227.59;5029011;28;20090;-34
2022/05/02 04:40:03;;;;;;;11.98;8.25;;;;;;;11.28;70.55;100216.59;5029053;28;20049;-30
2022/05/02 04:42:29;;;;;;;22.50;9.45;;;;;;;11.37;70.92;100231.28;5027414;28;20060;-29
2022/05/02 04:44:54;;;;;;;10.88;7.68;;;;;;;11.44;70.92;100233.88;5028329;28;20069;-35
2022/05/02 04:47:19;;;;;;;12.27;7.88;;;;;;;11.56;70.33;100217.94;5028890;28;20021;-29
2022/05/02 04:49:45;;;;;;;10.45;8.07;;;;;;;11.56;70.51;100213.41;5027403;28;20076;-30
2022/05/02 04:52:10;;;;;;;12.85;8.35;;;;;;;11.84;69.70;100241.50;5028927;28;20025;-30
2022/05/02 04:54:36;;;;;;;12.65;8.23;;;;;;;11.74;70.83;100238.53;5028658;28;20032;-33
2022/05/02 04:57:01;;;;;;;12.07;8.73;;;;;;;11.68;71.73;100231.38;5028600;28;20033;-30
2022/05/02 04:59:27;;;;;;;12.02;8.90;;;;;;;11.88;71.35;100242.69;5028844;28;20052;-28
2022/05/02 05:01:52;;;;;;;14.07;9.25;;;;;;;11.81;71.47;100231.22;5028672;28;20059;-30
2022/05/02 05:04:18;;;;;;;18.55;10.73;;;;;;;11.82;71.77;100246.25;5028831;28;20033;-32
2022/05/02 05:06:44;;;;;;;14.90;10.43;;;;;;;11.84;72.39;100252.19;5028404;28;20022;-28
2022/05/02 05:09:09;;;;;;;19.48;11.07;;;;;;;11.76;72.74;100249.81;5027175;28;20052;-29
2022/05/02 05:11:53;;;;;;;17.73;10.15;;;;;;;12.08;72.87;100257.72;5026879;28;20087;-29
2022/05/02 05:17:36;;;;;;;11.23;7.90;;;;;;;12.29;71.78;100262.56;5028405;28;20048;-29
2022/05/02 05:20:03;;;;;;;13.23;9.07;;;;;;;12.38;71.85;100261.22;5028095;28;20030;-32
2022/05/02 05:22:44;;;;;;;12.80;8.93;;;;;;;12.35;71.71;100266.22;5028287;28;20044;-29
2022/05/02 05:26:05;;;;;;;12.50;8.75;;;;;;;12.53;69.88;100249.31;5028106;28;20774;-29
2022/05/02 05:28:41;;;;;;;12.52;8.15;;;;;;;12.54;72.89;100269.66;5005171;28;20545;-29
2022/05/02 05:31:06;;;;;;;12.27;8.35;;;;;;;12.56;70.25;100259.53;4989239;28;20034;-30
2022/05/02 05:34:07;;;;;;;10.55;7.75;;;;;;;12.93;69.10;100264.78;5007631;28;20048;-30
2022/05/02 05:36:49;;;;;;;11.98;8.00;;;;;;;13.05;69.26;100260.25;5026074;28;20041;-30
2022/05/02 05:39:36;;;;;;;9.20;7.10;;;;;;;12.97;70.14;100263.28;5026437;28;20069;-30
2022/05/02 05:42:21;;;;;;;10.85;7.70;;;;;;;12.68;71.56;100263.06;5027879;28;20036;-30
2022/05/02 05:45:04;;;;;;;9.85;7.68;;;;;;;12.98;70.38;100251.53;5026366;28;20037;-29
2022/05/02 05:47:52;;;;;;;11.23;7.90;;;;;;;13.12;69.01;100262.81;5026697;28;20111;-29
2022/05/02 05:50:23;;;;;;;10.80;7.80;;;;;;;13.32;68.98;100259.84;5026421;28;20064;-30
2022/05/02 05:53:43;;;;;;;11.50;7.80;;;;;;;13.61;68.04;100250.09;5009899;28;20041;-29
2022/05/02 05:56:47;;;;;;;10.25;7.35;;;;;;;13.22;68.48;100253.19;5004478;28;20116;-29
2022/05/02 05:59:36;;;;;;;12.32;7.82;;;;;;;13.46;67.94;100259.41;5026216;28;20041;-30
2022/05/02 06:02:15;;;;;;;13.50;8.43;;;;;;;13.79;67.56;100254.47;5027389;28;20041;-32
2022/05/02 06:04:41;;;;;;;12.82;8.70;;;;;;;13.83;66.56;100248.44;5027289;28;20026;-28
2022/05/02 06:07:08;;;;;;;16.25;12.23;;;;;;;14.08;65.08;100255.38;5027751;28;20068;-31
2022/05/02 06:09:38;;;;;;;15.80;11.30;;;;;;;14.49;63.36;100268.78;5027554;28;20086;-31
2022/05/02 06:12:05;;;;;;;12.80;7.90;;;;;;;14.20;62.63;100266.03;5025880;28;20548;-31
2022/05/02 06:18:27;;;;;;;8.10;5.15;;;;;;;13.94;62.12;100264.72;5027209;28;20044;-29
2022/05/02 06:20:15;;;;;;;11.18;6.18;;;;;;;14.23;62.21;100270.94;5027509;28;20529;-32
2022/05/02 06:22:41;;;;;;;9.15;5.65;;;;;;;14.38;61.28;100265.88;5025512;28;20038;-28
2022/05/02 06:25:07;;;;;;;9.57;5.95;;;;;;;14.58;61.81;100272.72;5027659;28;20378;-30
2022/05/02 06:27:33;;;;;;;8.88;5.65;;;;;;;14.20;60.24;100264.19;5025962;28;20033;-29
2022/05/02 06:30:03;;;;;;;15.70;9.40;;;;;;;14.61;58.33;100277.63;5025928;28;20033;-29
2022/05/02 06:32:35;;;;;;;11.35;6.10;;;;;;;14.80;57.57;100272.84;5026933;28;20029;-29
2022/05/02 06:35:01;;;;;;;9.05;5.85;;;;;;;14.99;56.72;100262.69;5026957;28;20025;-29
2022/05/02 06:37:34;;;;;;;8.88;5.82;;;;;;;15.31;57.45;100278.25;5026707;28;20053;-29
2022/05/02 06:40:18;;;;;;;8.70;5.45;;;;;;;15.42;58.00;100280.03;5027106;28;20104;-32
2022/05/02 06:43:02;;;;;;;10.27;6.07;;;;;;;15.68;55.93;100270.47;5025361;28;20037;-29
2022/05/02 06:45:37;;;;;;;10.13;6.28;;;;;;;15.57;57.31;100263.31;5026992;28;20112;-29
2022/05/02 06:48:21;;;;;;;10.30;6.28;;;;;;;15.74;57.13;100245.31;5027418;28;20041;-31
2022/05/02 06:50:52;;;;;;;11.00;5.97;;;;;;;15.87;57.47;100249.50;5025324;28;20395;-28
2022/05/02 06:53:56;;;;;;;9.38;6.45;;;;;;;16.02;56.71;100256.97;5027160;28;20033;-28
2022/05/02 06:56:31;;;;;;;10.15;5.88;;;;;;;15.66;57.89;100259.16;5007205;28;20042;-29
2022/05/02 06:59:14;;;;;;;11.45;5.78;;;;;;;15.89;57.24;100257.34;5026720;28;20051;-29
2022/05/02 07:01:50;;;;;;;7.90;5.10;;;;;;;16.29;55.54;100243.56;5025689;28;20029;-31
2022/05/02 07:04:25;;;;;;;7.38;4.35;;;;;;;16.58;53.70;100248.72;5027013;28;20506;-29
2022/05/02 07:07:08;;;;;;;8.93;5.47;;;;;;;16.60;54.59;100246.56;5026744;28;20025;-31
2022/05/02 07:09:46;;;;;;;6.82;3.90;;;;;;;16.41;50.65;100244.22;5030165;28;20924;-29
2022/05/02 07:12:23;;;;;;;7.45;4.22;;;;;;;16.09;52.45;100241.44;5030544;28;20714;-29
2022/05/02 07:15:04;;;;;;;4.75;2.83;;;;;;;16.24;52.23;100238.09;5030215;28;20033;-33
2022/05/02 07:17:54;;;;;;;7.63;4.10;;;;;;;16.27;50.37;100238.44;5030628;28;20037;-30
2022/05/02 07:20:31;;;;;;;6.85;3.75;;;;;;;16.45;50.55;100231.91;5030644;28;20494;-32
2022/05/02 07:23:21;;;;;;;11.30;6.30;;;;;;;16.29;52.71;100238.19;4996169;28;20056;-32
2022/05/02 07:25:56;;;;;;;7.97;4.18;;;;;;;16.18;53.06;100225.66;5030614;28;20063;-29
2022/05/02 07:28:36;;;;;;;7.13;3.67;;;;;;;16.72;52.72;100239.16;5030379;28;20579;-29
2022/05/02 07:31:01;;;;;;;5.80;3.20;;;;;;;17.16;51.47;100236.31;5029883;28;20029;-28
2022/05/02 07:33:35;;;;;;;7.47;3.80;;;;;;;17.13;52.01;100228.75;5029956;28;20033;-31
2022/05/02 07:36:02;;;;;;;7.03;3.83;;;;;;;16.95;51.02;100219.16;5028611;28;20053;-30
2022/05/02 07:38:33;;;;;;;7.70;3.28;;;;;;;17.43;51.18;100221.94;5030118;28;20026;-31
2022/05/02 07:41:25;;;;;;;7.32;3.55;;;;;;;17.61;49.91;100208.03;5029757;28;20569;-31
2022/05/02 07:44:02;;;;;;;7.05;3.50;;;;;;;17.13;50.38;100223.34;5029791;28;20505;-29
2022/05/02 07:46:42;;;;;;;9.73;3.65;;;;;;;17.63;47.97;100221.22;5030137;28;20160;-30
2022/05/02 07:49:09;;;;;;;7.35;3.10;;;;;;;17.81;48.71;100214.56;5028681;28;20083;-30
2022/05/02 07:51:43;;;;;;;6.13;3.33;;;;;;;18.00;45.14;100226.56;5028410;28;20064;-30
2022/05/02 07:54:15;;;;;;;5.13;2.90;;;;;;;17.90;46.02;100194.16;5028560;28;20033;-29
2022/05/02 07:56:41;;;;;;;5.80;2.97;;;;;;;17.81;47.05;100190.28;5028331;28;20383;-30
2022/05/02 07:59:07;;;;;;;5.43;3.08;;;;;;;17.89;46.03;100197.91;5029891;28;20068;-29
2022/05/02 08:01:33;;;;;;;5.45;2.78;;;;;;;18.27;45.94;100185.09;5029963;28;20521;-31
2022/05/02 08:03:58;;;;;;;14.50;3.08;;;;;;;18.77;43.89;100186.19;5028420;28;20034;-28
2022/05/02 08:06:49;;;;;;;6.85;2.80;;;;;;;18.42;45.53;100204.00;5029471;28;20564;-32
2022/05/02 08:09:33;;;;;;;4.15;2.70;;;;;;;18.16;45.31;100195.03;5029852;28;20083;-30
2022/05/02 08:12:27;;;;;;;5.88;3.13;;;;;;;17.93;46.08;100188.22;5029372;28;20406;-28
2022/05/02 08:15:16;;;;;;;3.75;2.33;;;;;;;17.82;44.37;100178.44;5029264;28;20033;-32
2022/05/02 08:17:47;;;;;;;5.63;3.08;;;;;;;17.85;45.77;100180.63;5028349;28;20125;-29
2022/05/02 08:20:47;;;;;;;4.95;2.53;;;;;;;18.47;45.10;100171.59;5027157;28;20095;-28
2022/05/02 08:27:15;;;;;;;6.05;2.53;;;;;;;17.83;46.17;100155.81;5029453;28;20044;-29
2022/05/02 08:30:04;;;;;;;6.70;2.50;;;;;;;18.38;44.09;100146.22;5029049;28;20025;-29
2022/05/02 08:32:44;;;;;;;4.90;2.40;;;;;;;19.27;42.79;100130.47;5029240;28;20176;-30
2022/05/02 08:35:16;;;;;;;5.13;2.83;;;;;;;19.34;40.74;100130.19;5027740;28;20116;-29
2022/05/02 08:38:14;;;;;;;3.97;2.33;;;;;;;19.22;42.17;100130.47;5028824;28;20053;-30
2022/05/02 08:41:00;;;;;;;4.20;2.05;;;;;;;19.13;40.52;100129.44;5028409;28;20041;-29
2022/05/02 08:43:53;;;;;;;5.43;2.10;;;;;;;18.73;41.37;100125.69;5028707;28;20049;-33
2022/05/02 08:46:37;;;;;;;4.28;2.40;;;;;;;18.83;41.54;100106.78;5028890;28;20021;-29
2022/05/02 08:49:40;;;;;;;4.13;2.55;;;;;;;18.67;41.55;100124.91;5029185;28;20033;-29
2022/05/02 08:52:27;;;;;;;3.78;2.20;;;;;;;19.44;42.75;100118.53;5028728;28;20051;-32
2022/05/02 08:55:30;;;;;;;5.60;2.70;;;;;;;19.34;40.07;100110.47;5026803;28;20033;-29
2022/05/02 08:58:02;;;;;;;4.32;2.40;;;;;;;19.16;41.68;100126.19;5027226;28;20087;-29
2022/05/02 09:00:54;;;;;;;6.70;2.67;;;;;;;19.54;41.39;100123.09;5027250;28;20701;-31
2022/05/02 09:03:34;;;;;;;6.85;2.50;;;;;;;19.61;39.59;100126.28;5026311;28;20061;-29
2022/05/02 09:06:18;;;;;;;4.43;2.40;;;;;;;19.58;40.45;100108.72;5018512;28;20091;-30
2022/05/02 09:09:15;;;;;;;4.30;2.33;;;;;;;19.51;40.75;100127.13;5006500;28;20034;-29
2022/05/02 09:12:05;;;;;;;6.07;2.45;;;;;;;19.31;39.94;100129.91;5025499;28;20040;-30
2022/05/02 09:15:07;;;;;;;5.13;2.60;;;;;;;19.84;40.78;100124.88;5027751;28;20061;-31
2022/05/02 09:18:09;;;;;;;4.32;2.70;;;;;;;20.12;39.27;100117.13;5026856;28;20040;-30
2022/05/02 09:20:55;;;;;;;4.40;2.45;;;;;;;20.31;39.01;100115.38;5027209;28;20044;-29
2022/05/02 09:23:30;;;;;;;7.78;4.53;;;;;;;20.54;41.08;100115.72;5019665;28;20037;-33
2022/05/02 09:26:26;;;;;;;5.32;3.15;;;;;;;20.26;40.30;100108.06;5019152;28;20029;-29
2022/05/02 09:28:58;;;;;;;6.00;2.80;;;;;;;20.45;42.10;100113.63;5006676;28;20111;-37
2022/05/02 09:31:49;;;;;;;4.35;2.30;;;;;;;20.46;38.83;100109.81;5018010;28;20076;-35
2022/05/02 09:34:35;;;;;;;4.18;2.40;;;;;;;20.69;39.48;100107.47;5008933;28;20446;-33
2022/05/02 09:37:20;;;;;;;4.63;2.97;;;;;;;20.80;39.65;100119.03;5006393;28;20057;-30
2022/05/02 09:40:08;;;;;;;5.05;3.05;;;;;;;20.81;38.41;100131.50;5007587;28;20091;-29
2022/05/02 09:42:39;;;;;;;4.28;2.53;;;;;;;21.16;37.94;100119.47;5006977;28;20068;-31
2022/05/02 09:51:20;;;;;;;4.97;2.50;;;;;;;21.58;36.14;100115.22;5006865;28;19991;-29
2022/05/02 09:53:55;;;;;;;6.95;2.45;;;;;;;21.87;37.47;100111.59;5006110;28;20029;-30
2022/05/02 09:56:38;;;;;;;4.32;2.35;;;;;;;22.29;37.91;100107.16;5011516;28;20119;-36
2022/05/02 09:59:18;;;;;;;5.38;2.72;;;;;;;21.05;38.36;100112.56;5015459;28;20034;-34
2022/05/02 10:01:48;;;;;;;6.40;2.50;;;;;;;20.78;38.38;100081.41;5006824;28;20061;-31
2022/05/02 10:04:32;;;;;;;4.20;2.10;;;;;;;20.30;40.00;100113.75;5006257;28;20068;-33
2022/05/02 10:07:03;;;;;;;4.90;2.67;;;;;;;20.45;39.39;100100.09;5007107;28;20060;-30
2022/05/02 10:09:56;;;;;;;4.10;2.35;;;;;;;20.10;39.14;100105.75;5005534;28;20045;-30
2022/05/02 10:12:46;;;;;;;7.15;2.67;;;;;;;20.05;39.53;100096.59;5005623;28;20034;-30
2022/05/02 10:15:14;;;;;;;7.45;3.40;;;;;;;20.20;40.61;100086.75;5006968;28;20033;-33
2022/05/02 10:18:02;;;;;;;5.78;2.60;;;;;;;20.31;38.34;100080.16;5006880;28;20025;-29
2022/05/02 10:20:56;;;;;;;7.57;2.55;;;;;;;20.23;39.57;100081.56;5007034;28;20108;-32
2022/05/02 10:23:25;;;;;;;4.25;2.55;;;;;;;20.39;40.62;100079.56;4998893;28;20128;-29
2022/05/02 10:25:51;;;;;;;4.43;2.50;;;;;;;19.97;40.08;100078.22;5005399;28;20076;-31
2022/05/02 10:28:23;;;;;;;4.78;2.45;;;;;;;20.01;39.44;100068.47;5005240;28;20105;-30
2022/05/02 10:30:49;;;;;;;4.78;2.20;;;;;;;20.00;37.98;100069.56;5005089;28;20120;-30
2022/05/02 10:33:16;;;;;;;6.07;2.53;;;;;;;19.85;40.16;100054.22;5007062;28;20121;-31
2022/05/02 10:35:45;;;;;;;7.50;2.50;;;;;;;20.25;39.55;100056.94;5005309;28;20034;-30
2022/05/02 10:38:28;;;;;;;8.63;4.13;;;;;;;19.61;39.74;100032.41;5005548;28;20065;-31
2022/05/02 10:41:20;;;;;;;4.95;2.72;;;;;;;20.02;40.11;100031.38;5006373;28;20038;-30
2022/05/02 10:43:50;;;;;;;4.85;2.80;;;;;;;20.26;38.45;100036.88;5008510;28;20045;-31
2022/05/02 10:46:18;;;;;;;5.93;2.45;;;;;;;20.17;38.78;100022.34;5014418;28;20029;-33
2022/05/02 10:48:53;;;;;;;6.75;2.40;;;;;;;20.09;39.02;100022.94;5019136;28;20051;-32
2022/05/02 10:51:40;;;;;;;5.32;2.13;;;;;;;19.77;38.21;100027.75;5027706;28;20042;-30
2022/05/02 10:54:17;;;;;;;;;;;;;;;19.62;39.27;100038.66;5010908;28;20088;-31
2022/05/02 10:56:44;;;;;;;5.30;2.25;;;;;;;19.47;40.25;100031.41;5012700;28;19936;-32
2022/05/02 10:59:13;;;;;;;4.45;2.17;;;;;;;19.26;38.51;100034.22;5030018;28;20108;-29
2022/05/02 11:02:24;;;;;;;4.20;2.20;;;;;;;19.41;40.13;100019.00;5029761;28;20025;-32
2022/05/02 11:05:05;;;;;;;3.75;2.00;;;;;;;19.63;39.77;100016.72;5026798;28;20417;-30
2022/05/02 11:07:49;;;;;;;3.60;1.92;;;;;;;20.12;39.16;100019.66;5028460;28;20033;-30
2022/05/02 11:10:18;;;;;;;10.75;3.42;;;;;;;20.37;38.74;100024.03;5028235;28;20573;-29
2022/05/02 11:13:08;;;;;;;4.72;2.10;;;;;;;20.03;36.73;100022.97;5028055;28;20033;-33
2022/05/02 11:15:48;;;;;;;2.60;1.60;;;;;;;20.21;36.50;99997.09;5029980;28;20048;-28
2022/05/02 11:21:50;;;;;;;3.70;2.05;;;;;;;20.57;36.11;99990.53;5024584;28;20045;-32
2022/05/02 11:24:25;;;;;;;4.45;2.00;;;;;;;20.71;35.15;99999.63;5029870;28;20036;-29
2022/05/02 11:27:17;;;;;;;3.25;1.98;;;;;;;20.79;36.38;99998.19;5029127;28;20025;-33
2022/05/02 11:29:45;;;;;;;3.85;2.28;;;;;;;20.54;35.46;99999.25;5029033;28;20080;-29
2022/05/02 11:32:43;;;;;;;4.47;1.88;;;;;;;20.33;36.65;99999.44;5029260;28;20516;-31
2022/05/02 11:35:08;;;;;;;;;;;;;;;20.06;37.47;99998.06;5028637;28;20029;-29
2022/05/02 11:37:42;;;;;;;4.77;2.37;;;;;;;20.04;37.43;99992.13;5029220;28;19939;-29
2022/05/02 11:40:12;;;;;;;4.38;3.05;;;;;;;20.35;36.43;99993.72;5027560;28;20283;-30
2022/05/02 11:42:43;;;;;;;5.80;2.10;;;;;;;20.12;34.72;99995.28;5028653;28;20097;-30
2022/05/02 11:45:12;;;;;;;4.82;1.90;;;;;;;20.12;37.01;99998.00;5010956;28;20102;-29
2022/05/02 11:48:22;;;;;;;3.80;2.30;;;;;;;20.34;34.94;99987.50;5028955;28;20021;-34
2022/05/02 11:50:48;;;;;;;3.72;2.30;;;;;;;20.37;34.64;99999.66;4991299;28;20043;-29
2022/05/02 11:53:16;;;;;;;4.85;2.00;;;;;;;20.07;36.82;99998.84;5028289;28;20108;-35
2022/05/02 11:55:45;;;;;;;2.03;1.52;;;;;;;20.20;35.68;99975.72;5027296;28;20048;-36
2022/05/02 11:58:26;;;;;;;3.03;2.47;;;;;;;19.67;37.69;99962.88;5028709;28;20029;-31
2022/05/02 12:00:57;;;;;;;5.15;2.38;;;;;;;19.72;38.81;99972.88;5028569;28;20029;-29
2022/05/02 12:03:24;;;;;;;3.95;2.13;;;;;;;19.83;39.18;99991.44;5028905;28;20032;-33
2022/05/02 12:05:58;;;;;;;4.90;2.17;;;;;;;19.65;39.47;99983.97;5026000;28;20035;-36
2022/05/02 12:08:38;;;;;;;3.63;2.22;;;;;;;19.77;39.90;99975.53;5026159;28;20040;-30
2022/05/02 12:11:11;;;;;;;3.97;2.40;;;;;;;19.65;39.58;99978.56;5024844;28;20040;-29
2022/05/02 12:13:41;;;;;;;3.67;2.25;;;;;;;19.54;40.10;99991.34;5025995;28;20028;-29
2022/05/02 12:16:09;;;;;;;3.80;2.40;;;;;;;19.51;40.00;99994.59;5027847;28;20025;-29